sensor_id;sensor_type;location;lat;lon;timestamp;P1;durP1;ratioP1;P2;durP2;ratioP2
52035;SDS011;38046;49.448;32.074;2023-02-04T00:01:23;7.70;;;6.00;;
52035;SDS011;38046;49.448;32.074;2023-02-04T00:03:48;8.98;;;6.80;;
52035;SDS011;38046;49.448;32.074;2023-02-04T00:06:14;8.20;;;6.32;;
52035;SDS011;38046;49.448;32.074;2023-02-04T00:08:40;9.35;;;6.90;;
52035;SDS011;38046;49.448;32.074;2023-02-04T00:11:05;9.32;;;6.47;;
52035;SDS011;38046;49.448;32.074;2023-02-04T00:13:31;6.93;;;5.78;;
52035;SDS011;38046;49.448;32.074;2023-02-04T00:15:56;7.18;;;6.05;;
52035;SDS011;38046;49.448;32.074;2023-02-04T00:18:23;7.97;;;6.20;;
52035;SDS011;38046;49.448;32.074;2023-02-04T00:20:48;7.00;;;5.78;;
52035;SDS011;38046;49.448;32.074;2023-02-04T00:23:14;7.53;;;6.22;;
52035;SDS011;38046;49.448;32.074;2023-02-04T00:25:39;8.23;;;5.90;;
52035;SDS011;38046;49.448;32.074;2023-02-04T00:28:05;7.30;;;5.90;;
52035;SDS011;38046;49.448;32.074;2023-02-04T00:30:31;7.25;;;5.47;;
52035;SDS011;38046;49.448;32.074;2023-02-04T00:32:57;7.10;;;5.63;;
52035;SDS011;38046;49.448;32.074;2023-02-04T00:35:23;8.05;;;6.07;;
52035;SDS011;38046;49.448;32.074;2023-02-04T00:37:49;8.38;;;6.13;;
52035;SDS011;38046;49.448;32.074;2023-02-04T00:40:15;7.28;;;5.70;;
52035;SDS011;38046;49.448;32.074;2023-02-04T00:42:41;9.13;;;5.70;;
52035;SDS011;38046;49.448;32.074;2023-02-04T00:45:07;7.75;;;5.97;;
52035;SDS011;38046;49.448;32.074;2023-02-04T00:47:34;7.20;;;5.38;;
52035;SDS011;38046;49.448;32.074;2023-02-04T00:50:00;8.07;;;5.93;;
52035;SDS011;38046;49.448;32.074;2023-02-04T00:52:25;8.23;;;5.90;;
52035;SDS011;38046;49.448;32.074;2023-02-04T00:54:51;7.20;;;5.90;;
52035;SDS011;38046;49.448;32.074;2023-02-04T00:57:17;8.23;;;6.22;;
52035;SDS011;38046;49.448;32.074;2023-02-04T00:59:43;7.10;;;5.38;;
52035;SDS011;38046;49.448;32.074;2023-02-04T01:02:08;7.32;;;6.00;;
52035;SDS011;38046;49.448;32.074;2023-02-04T01:04:34;6.28;;;5.10;;
52035;SDS011;38046;49.448;32.074;2023-02-04T01:07:00;6.32;;;5.35;;
52035;SDS011;38046;49.448;32.074;2023-02-04T01:09:25;5.97;;;5.38;;
52035;SDS011;38046;49.448;32.074;2023-02-04T01:11:51;7.00;;;5.53;;
52035;SDS011;38046;49.448;32.074;2023-02-04T01:14:17;6.57;;;5.40;;
52035;SDS011;38046;49.448;32.074;2023-02-04T01:16:42;6.38;;;5.20;;
52035;SDS011;38046;49.448;32.074;2023-02-04T01:19:09;6.88;;;5.63;;
52035;SDS011;38046;49.448;32.074;2023-02-04T01:21:35;6.63;;;5.32;;
52035;SDS011;38046;49.448;32.074;2023-02-04T01:24:01;9.65;;;6.32;;
52035;SDS011;38046;49.448;32.074;2023-02-04T01:26:27;7.43;;;6.32;;
52035;SDS011;38046;49.448;32.074;2023-02-04T01:28:53;7.45;;;6.15;;
52035;SDS011;38046;49.448;32.074;2023-02-04T01:31:19;6.45;;;5.68;;
52035;SDS011;38046;49.448;32.074;2023-02-04T01:33:44;8.07;;;6.13;;
52035;SDS011;38046;49.448;32.074;2023-02-04T01:36:10;8.20;;;6.47;;
52035;SDS011;38046;49.448;32.074;2023-02-04T01:38:36;7.82;;;6.20;;
52035;SDS011;38046;49.448;32.074;2023-02-04T01:41:02;7.28;;;5.55;;
52035;SDS011;38046;49.448;32.074;2023-02-04T01:43:28;9.25;;;6.32;;
52035;SDS011;38046;49.448;32.074;2023-02-04T01:45:55;8.05;;;6.13;;
52035;SDS011;38046;49.448;32.074;2023-02-04T01:48:21;6.63;;;5.85;;
52035;SDS011;38046;49.448;32.074;2023-02-04T01:50:48;7.30;;;5.95;;
52035;SDS011;38046;49.448;32.074;2023-02-04T01:53:17;7.35;;;5.45;;
52035;SDS011;38046;49.448;32.074;2023-02-04T01:55:48;9.00;;;6.38;;
52035;SDS011;38046;49.448;32.074;2023-02-04T01:58:14;7.45;;;6.05;;
52035;SDS011;38046;49.448;32.074;2023-02-04T02:00:40;6.20;;;5.30;;
52035;SDS011;38046;49.448;32.074;2023-02-04T02:03:07;8.00;;;6.60;;
52035;SDS011;38046;49.448;32.074;2023-02-04T02:05:38;8.02;;;6.03;;
52035;SDS011;38046;49.448;32.074;2023-02-04T02:08:16;8.50;;;6.38;;
52035;SDS011;38046;49.448;32.074;2023-02-04T02:10:43;8.93;;;6.25;;
52035;SDS011;38046;49.448;32.074;2023-02-04T02:13:11;6.35;;;5.68;;
52035;SDS011;38046;49.448;32.074;2023-02-04T02:15:40;8.65;;;6.57;;
52035;SDS011;38046;49.448;32.074;2023-02-04T02:18:06;8.38;;;6.40;;
52035;SDS011;38046;49.448;32.074;2023-02-04T02:20:32;8.05;;;6.50;;
52035;SDS011;38046;49.448;32.074;2023-02-04T02:23:01;8.50;;;6.63;;
52035;SDS011;38046;49.448;32.074;2023-02-04T02:25:37;7.38;;;5.90;;
52035;SDS011;38046;49.448;32.074;2023-02-04T02:28:05;9.35;;;6.32;;
52035;SDS011;38046;49.448;32.074;2023-02-04T02:30:35;9.05;;;6.38;;
52035;SDS011;38046;49.448;32.074;2023-02-04T02:33:01;8.85;;;6.28;;
52035;SDS011;38046;49.448;32.074;2023-02-04T02:35:27;6.95;;;6.25;;
52035;SDS011;38046;49.448;32.074;2023-02-04T02:37:53;8.73;;;6.30;;
52035;SDS011;38046;49.448;32.074;2023-02-04T02:40:19;7.07;;;6.00;;
52035;SDS011;38046;49.448;32.074;2023-02-04T02:42:45;8.57;;;5.90;;
52035;SDS011;38046;49.448;32.074;2023-02-04T02:45:24;8.07;;;6.18;;
52035;SDS011;38046;49.448;32.074;2023-02-04T02:47:52;7.88;;;5.88;;
52035;SDS011;38046;49.448;32.074;2023-02-04T02:50:20;7.10;;;5.78;;
52035;SDS011;38046;49.448;32.074;2023-02-04T02:52:48;6.72;;;5.55;;
52035;SDS011;38046;49.448;32.074;2023-02-04T02:55:15;6.93;;;5.82;;
52035;SDS011;38046;49.448;32.074;2023-02-04T02:57:43;7.38;;;5.85;;
52035;SDS011;38046;49.448;32.074;2023-02-04T03:00:17;7.40;;;5.82;;
52035;SDS011;38046;49.448;32.074;2023-02-04T03:02:44;6.28;;;5.25;;
52035;SDS011;38046;49.448;32.074;2023-02-04T03:05:16;7.60;;;5.93;;
52035;SDS011;38046;49.448;32.074;2023-02-04T03:07:42;6.15;;;5.32;;
52035;SDS011;38046;49.448;32.074;2023-02-04T03:10:07;6.40;;;5.70;;
52035;SDS011;38046;49.448;32.074;2023-02-04T03:12:33;8.40;;;6.18;;
52035;SDS011;38046;49.448;32.074;2023-02-04T03:14:59;7.28;;;5.88;;
52035;SDS011;38046;49.448;32.074;2023-02-04T03:17:25;8.05;;;6.10;;
52035;SDS011;38046;49.448;32.074;2023-02-04T03:19:50;8.45;;;5.97;;
52035;SDS011;38046;49.448;32.074;2023-02-04T03:22:16;7.22;;;6.22;;
52035;SDS011;38046;49.448;32.074;2023-02-04T03:24:42;8.57;;;7.03;;
52035;SDS011;38046;49.448;32.074;2023-02-04T03:27:08;8.68;;;6.40;;
52035;SDS011;38046;49.448;32.074;2023-02-04T03:29:33;7.15;;;6.05;;
52035;SDS011;38046;49.448;32.074;2023-02-04T03:32:05;7.75;;;6.18;;
52035;SDS011;38046;49.448;32.074;2023-02-04T03:34:30;7.55;;;6.40;;
52035;SDS011;38046;49.448;32.074;2023-02-04T03:36:56;7.70;;;6.25;;
52035;SDS011;38046;49.448;32.074;2023-02-04T03:39:21;7.32;;;6.28;;
52035;SDS011;38046;49.448;32.074;2023-02-04T03:41:47;7.28;;;6.32;;
52035;SDS011;38046;49.448;32.074;2023-02-04T03:44:13;7.78;;;6.28;;
52035;SDS011;38046;49.448;32.074;2023-02-04T03:46:38;8.60;;;6.32;;
52035;SDS011;38046;49.448;32.074;2023-02-04T03:49:04;8.38;;;6.45;;
52035;SDS011;38046;49.448;32.074;2023-02-04T03:51:30;6.53;;;5.78;;
52035;SDS011;38046;49.448;32.074;2023-02-04T03:53:55;6.88;;;5.65;;
52035;SDS011;38046;49.448;32.074;2023-02-04T03:56:21;7.35;;;5.60;;
52035;SDS011;38046;49.448;32.074;2023-02-04T03:58:46;6.85;;;5.47;;
52035;SDS011;38046;49.448;32.074;2023-02-04T04:01:12;7.53;;;5.53;;
52035;SDS011;38046;49.448;32.074;2023-02-04T04:03:38;7.53;;;5.75;;
52035;SDS011;38046;49.448;32.074;2023-02-04T04:06:03;7.20;;;5.97;;
52035;SDS011;38046;49.448;32.074;2023-02-04T04:08:32;6.32;;;5.38;;
52035;SDS011;38046;49.448;32.074;2023-02-04T04:10:58;7.28;;;5.72;;
52035;SDS011;38046;49.448;32.074;2023-02-04T04:13:24;6.07;;;5.07;;
52035;SDS011;38046;49.448;32.074;2023-02-04T04:15:49;7.28;;;5.55;;
52035;SDS011;38046;49.448;32.074;2023-02-04T04:18:15;7.38;;;5.70;;
52035;SDS011;38046;49.448;32.074;2023-02-04T04:20:41;7.18;;;5.55;;
52035;SDS011;38046;49.448;32.074;2023-02-04T04:23:06;6.05;;;5.22;;
52035;SDS011;38046;49.448;32.074;2023-02-04T04:25:32;6.72;;;5.35;;
52035;SDS011;38046;49.448;32.074;2023-02-04T04:27:57;7.45;;;5.35;;
52035;SDS011;38046;49.448;32.074;2023-02-04T04:30:23;6.20;;;5.60;;
52035;SDS011;38046;49.448;32.074;2023-02-04T04:32:48;8.32;;;6.18;;
52035;SDS011;38046;49.448;32.074;2023-02-04T04:35:14;9.00;;;6.63;;
52035;SDS011;38046;49.448;32.074;2023-02-04T04:37:40;8.38;;;6.60;;
52035;SDS011;38046;49.448;32.074;2023-02-04T04:40:05;7.22;;;5.65;;
52035;SDS011;38046;49.448;32.074;2023-02-04T04:42:31;7.03;;;5.60;;
52035;SDS011;38046;49.448;32.074;2023-02-04T04:44:57;8.25;;;6.18;;
52035;SDS011;38046;49.448;32.074;2023-02-04T04:47:22;7.65;;;5.85;;
52035;SDS011;38046;49.448;32.074;2023-02-04T04:49:48;7.22;;;5.68;;
52035;SDS011;38046;49.448;32.074;2023-02-04T04:52:14;6.70;;;5.80;;
52035;SDS011;38046;49.448;32.074;2023-02-04T04:54:39;6.22;;;5.53;;
52035;SDS011;38046;49.448;32.074;2023-02-04T04:57:05;6.88;;;5.80;;
52035;SDS011;38046;49.448;32.074;2023-02-04T04:59:30;6.55;;;5.68;;
52035;SDS011;38046;49.448;32.074;2023-02-04T05:01:56;8.65;;;6.10;;
52035;SDS011;38046;49.448;32.074;2023-02-04T05:04:22;6.05;;;5.45;;
52035;SDS011;38046;49.448;32.074;2023-02-04T05:06:47;7.10;;;5.63;;
52035;SDS011;38046;49.448;32.074;2023-02-04T05:09:13;7.20;;;5.88;;
52035;SDS011;38046;49.448;32.074;2023-02-04T05:11:40;8.00;;;6.25;;
52035;SDS011;38046;49.448;32.074;2023-02-04T05:14:06;8.77;;;5.75;;
52035;SDS011;38046;49.448;32.074;2023-02-04T05:16:31;7.57;;;5.65;;
52035;SDS011;38046;49.448;32.074;2023-02-04T05:18:57;7.38;;;6.28;;
52035;SDS011;38046;49.448;32.074;2023-02-04T05:21:22;7.72;;;6.13;;
52035;SDS011;38046;49.448;32.074;2023-02-04T05:23:48;7.55;;;6.10;;
52035;SDS011;38046;49.448;32.074;2023-02-04T05:26:14;10.55;;;6.63;;
52035;SDS011;38046;49.448;32.074;2023-02-04T05:28:39;8.80;;;6.90;;
52035;SDS011;38046;49.448;32.074;2023-02-04T05:31:05;10.45;;;7.28;;
52035;SDS011;38046;49.448;32.074;2023-02-04T05:33:31;9.73;;;7.78;;
52035;SDS011;38046;49.448;32.074;2023-02-04T05:35:56;9.38;;;8.18;;
52035;SDS011;38046;49.448;32.074;2023-02-04T05:38:22;9.90;;;8.30;;
52035;SDS011;38046;49.448;32.074;2023-02-04T05:40:47;13.15;;;7.95;;
52035;SDS011;38046;49.448;32.074;2023-02-04T05:43:13;11.38;;;8.10;;
52035;SDS011;38046;49.448;32.074;2023-02-04T05:45:39;10.38;;;8.68;;
52035;SDS011;38046;49.448;32.074;2023-02-04T05:48:04;12.75;;;8.73;;
52035;SDS011;38046;49.448;32.074;2023-02-04T05:50:30;10.35;;;8.15;;
52035;SDS011;38046;49.448;32.074;2023-02-04T05:52:55;10.57;;;8.57;;
52035;SDS011;38046;49.448;32.074;2023-02-04T05:55:21;12.45;;;8.77;;
52035;SDS011;38046;49.448;32.074;2023-02-04T05:57:47;10.82;;;8.15;;
52035;SDS011;38046;49.448;32.074;2023-02-04T06:00:12;9.00;;;7.35;;
52035;SDS011;38046;49.448;32.074;2023-02-04T06:02:38;10.18;;;8.27;;
52035;SDS011;38046;49.448;32.074;2023-02-04T06:05:04;10.95;;;7.97;;
52035;SDS011;38046;49.448;32.074;2023-02-04T06:07:30;9.52;;;7.32;;
52035;SDS011;38046;49.448;32.074;2023-02-04T06:09:56;9.63;;;7.40;;
52035;SDS011;38046;49.448;32.074;2023-02-04T06:12:21;9.73;;;8.15;;
52035;SDS011;38046;49.448;32.074;2023-02-04T06:14:47;9.35;;;8.10;;
52035;SDS011;38046;49.448;32.074;2023-02-04T06:17:12;8.90;;;7.18;;
52035;SDS011;38046;49.448;32.074;2023-02-04T06:19:38;11.05;;;7.63;;
52035;SDS011;38046;49.448;32.074;2023-02-04T06:22:04;10.50;;;8.35;;
52035;SDS011;38046;49.448;32.074;2023-02-04T06:24:29;11.25;;;8.75;;
52035;SDS011;38046;49.448;32.074;2023-02-04T06:26:55;12.63;;;8.82;;
52035;SDS011;38046;49.448;32.074;2023-02-04T06:29:20;11.07;;;9.60;;
52035;SDS011;38046;49.448;32.074;2023-02-04T06:31:46;11.60;;;8.85;;
52035;SDS011;38046;49.448;32.074;2023-02-04T06:34:13;11.90;;;8.75;;
52035;SDS011;38046;49.448;32.074;2023-02-04T06:36:39;13.02;;;9.77;;
52035;SDS011;38046;49.448;32.074;2023-02-04T06:39:05;13.27;;;9.02;;
52035;SDS011;38046;49.448;32.074;2023-02-04T06:41:30;13.30;;;8.82;;
52035;SDS011;38046;49.448;32.074;2023-02-04T06:43:56;12.52;;;9.65;;
52035;SDS011;38046;49.448;32.074;2023-02-04T06:46:21;11.15;;;8.70;;
52035;SDS011;38046;49.448;32.074;2023-02-04T06:48:47;14.90;;;9.55;;
52035;SDS011;38046;49.448;32.074;2023-02-04T06:51:13;12.70;;;9.05;;
52035;SDS011;38046;49.448;32.074;2023-02-04T06:53:38;12.48;;;8.60;;
52035;SDS011;38046;49.448;32.074;2023-02-04T06:56:05;12.38;;;8.57;;
52035;SDS011;38046;49.448;32.074;2023-02-04T06:58:30;10.52;;;8.00;;
52035;SDS011;38046;49.448;32.074;2023-02-04T07:00:56;10.50;;;8.68;;
52035;SDS011;38046;49.448;32.074;2023-02-04T07:03:22;10.20;;;7.75;;
52035;SDS011;38046;49.448;32.074;2023-02-04T07:05:47;10.20;;;7.57;;
52035;SDS011;38046;49.448;32.074;2023-02-04T07:08:13;9.10;;;7.45;;
52035;SDS011;38046;49.448;32.074;2023-02-04T07:10:39;9.52;;;8.00;;
52035;SDS011;38046;49.448;32.074;2023-02-04T07:13:04;9.15;;;7.72;;
52035;SDS011;38046;49.448;32.074;2023-02-04T07:15:30;11.13;;;7.47;;
52035;SDS011;38046;49.448;32.074;2023-02-04T07:17:55;7.82;;;6.72;;
52035;SDS011;38046;49.448;32.074;2023-02-04T07:20:21;8.48;;;6.63;;
52035;SDS011;38046;49.448;32.074;2023-02-04T07:22:47;6.88;;;6.05;;
52035;SDS011;38046;49.448;32.074;2023-02-04T07:25:12;9.00;;;6.63;;
52035;SDS011;38046;49.448;32.074;2023-02-04T07:27:40;7.50;;;6.05;;
52035;SDS011;38046;49.448;32.074;2023-02-04T07:30:05;9.30;;;6.80;;
52035;SDS011;38046;49.448;32.074;2023-02-04T07:32:31;9.00;;;6.93;;
52035;SDS011;38046;49.448;32.074;2023-02-04T07:34:58;7.00;;;6.30;;
52035;SDS011;38046;49.448;32.074;2023-02-04T07:37:24;7.63;;;6.20;;
52035;SDS011;38046;49.448;32.074;2023-02-04T07:39:50;6.88;;;6.15;;
52035;SDS011;38046;49.448;32.074;2023-02-04T07:42:15;8.50;;;6.20;;
52035;SDS011;38046;49.448;32.074;2023-02-04T07:44:41;8.80;;;6.60;;
52035;SDS011;38046;49.448;32.074;2023-02-04T07:47:07;6.82;;;6.10;;
52035;SDS011;38046;49.448;32.074;2023-02-04T07:49:32;9.90;;;7.03;;
52035;SDS011;38046;49.448;32.074;2023-02-04T07:51:58;7.45;;;6.18;;
52035;SDS011;38046;49.448;32.074;2023-02-04T07:54:23;7.30;;;5.95;;
52035;SDS011;38046;49.448;32.074;2023-02-04T07:56:49;6.80;;;5.57;;
52035;SDS011;38046;49.448;32.074;2023-02-04T07:59:15;7.72;;;5.65;;
52035;SDS011;38046;49.448;32.074;2023-02-04T08:01:40;8.10;;;6.25;;
52035;SDS011;38046;49.448;32.074;2023-02-04T08:04:06;7.93;;;6.40;;
52035;SDS011;38046;49.448;32.074;2023-02-04T08:06:31;9.70;;;7.05;;
52035;SDS011;38046;49.448;32.074;2023-02-04T08:08:57;8.95;;;6.75;;
52035;SDS011;38046;49.448;32.074;2023-02-04T08:11:23;9.23;;;6.93;;
52035;SDS011;38046;49.448;32.074;2023-02-04T08:13:48;8.00;;;6.35;;
52035;SDS011;38046;49.448;32.074;2023-02-04T08:16:14;9.60;;;6.88;;
52035;SDS011;38046;49.448;32.074;2023-02-04T08:18:40;9.85;;;6.45;;
52035;SDS011;38046;49.448;32.074;2023-02-04T08:21:05;9.13;;;6.18;;
52035;SDS011;38046;49.448;32.074;2023-02-04T08:23:31;9.15;;;6.60;;
52035;SDS011;38046;49.448;32.074;2023-02-04T08:26:05;7.68;;;6.50;;
52035;SDS011;38046;49.448;32.074;2023-02-04T08:28:35;8.93;;;6.47;;
52035;SDS011;38046;49.448;32.074;2023-02-04T08:31:02;7.50;;;6.15;;
52035;SDS011;38046;49.448;32.074;2023-02-04T08:33:29;8.35;;;6.47;;
52035;SDS011;38046;49.448;32.074;2023-02-04T08:35:54;8.55;;;6.50;;
52035;SDS011;38046;49.448;32.074;2023-02-04T08:38:20;8.38;;;6.28;;
52035;SDS011;38046;49.448;32.074;2023-02-04T08:40:45;7.18;;;6.03;;
52035;SDS011;38046;49.448;32.074;2023-02-04T08:43:11;8.50;;;6.75;;
52035;SDS011;38046;49.448;32.074;2023-02-04T08:45:37;8.43;;;6.60;;
52035;SDS011;38046;49.448;32.074;2023-02-04T08:48:03;9.13;;;7.43;;
52035;SDS011;38046;49.448;32.074;2023-02-04T08:50:28;9.93;;;7.55;;
52035;SDS011;38046;49.448;32.074;2023-02-04T08:52:55;7.88;;;6.53;;
52035;SDS011;38046;49.448;32.074;2023-02-04T08:55:20;9.32;;;7.10;;
52035;SDS011;38046;49.448;32.074;2023-02-04T08:57:46;9.55;;;6.78;;
52035;SDS011;38046;49.448;32.074;2023-02-04T09:00:12;8.60;;;6.95;;
52035;SDS011;38046;49.448;32.074;2023-02-04T09:02:38;7.68;;;6.38;;
52035;SDS011;38046;49.448;32.074;2023-02-04T09:05:04;7.53;;;6.65;;
52035;SDS011;38046;49.448;32.074;2023-02-04T09:07:29;9.20;;;6.80;;
52035;SDS011;38046;49.448;32.074;2023-02-04T09:09:55;9.88;;;6.65;;
52035;SDS011;38046;49.448;32.074;2023-02-04T09:12:21;8.45;;;6.57;;
52035;SDS011;38046;49.448;32.074;2023-02-04T09:14:46;8.15;;;6.55;;
52035;SDS011;38046;49.448;32.074;2023-02-04T09:17:12;6.72;;;6.00;;
52035;SDS011;38046;49.448;32.074;2023-02-04T09:19:37;7.72;;;5.78;;
52035;SDS011;38046;49.448;32.074;2023-02-04T09:22:03;7.20;;;6.20;;
52035;SDS011;38046;49.448;32.074;2023-02-04T09:24:29;8.43;;;6.78;;
52035;SDS011;38046;49.448;32.074;2023-02-04T09:26:54;8.77;;;6.45;;
52035;SDS011;38046;49.448;32.074;2023-02-04T09:29:20;6.85;;;6.13;;
52035;SDS011;38046;49.448;32.074;2023-02-04T09:31:46;9.45;;;7.10;;
52035;SDS011;38046;49.448;32.074;2023-02-04T09:34:11;7.90;;;6.60;;
52035;SDS011;38046;49.448;32.074;2023-02-04T09:36:37;8.02;;;6.18;;
52035;SDS011;38046;49.448;32.074;2023-02-04T09:39:04;8.05;;;6.28;;
52035;SDS011;38046;49.448;32.074;2023-02-04T09:41:30;7.40;;;6.35;;
52035;SDS011;38046;49.448;32.074;2023-02-04T09:43:57;7.95;;;6.32;;
52035;SDS011;38046;49.448;32.074;2023-02-04T09:46:24;8.00;;;6.40;;
52035;SDS011;38046;49.448;32.074;2023-02-04T09:48:54;9.50;;;6.95;;
52035;SDS011;38046;49.448;32.074;2023-02-04T09:51:21;7.28;;;6.20;;
52035;SDS011;38046;49.448;32.074;2023-02-04T09:53:50;8.38;;;6.50;;
52035;SDS011;38046;49.448;32.074;2023-02-04T09:56:18;7.03;;;6.25;;
52035;SDS011;38046;49.448;32.074;2023-02-04T09:58:44;8.02;;;6.38;;
52035;SDS011;38046;49.448;32.074;2023-02-04T10:01:14;6.85;;;6.05;;
52035;SDS011;38046;49.448;32.074;2023-02-04T10:06:14;7.28;;;5.35;;
52035;SDS011;38046;49.448;32.074;2023-02-04T10:08:46;7.22;;;6.25;;
52035;SDS011;38046;49.448;32.074;2023-02-04T10:11:13;8.70;;;6.57;;
52035;SDS011;38046;49.448;32.074;2023-02-04T10:13:44;7.13;;;6.05;;
52035;SDS011;38046;49.448;32.074;2023-02-04T10:16:21;6.90;;;5.32;;
52035;SDS011;38046;49.448;32.074;2023-02-04T10:19:01;7.22;;;6.00;;
52035;SDS011;38046;49.448;32.074;2023-02-04T10:21:29;8.35;;;5.63;;
52035;SDS011;38046;49.448;32.074;2023-02-04T10:24:00;7.95;;;5.57;;
52035;SDS011;38046;49.448;32.074;2023-02-04T10:26:29;6.80;;;5.68;;
52035;SDS011;38046;49.448;32.074;2023-02-04T10:34:11;7.20;;;5.70;;
52035;SDS011;38046;49.448;32.074;2023-02-04T10:36:38;7.45;;;5.50;;
52035;SDS011;38046;49.448;32.074;2023-02-04T10:41:31;6.40;;;5.28;;
52035;SDS011;38046;49.448;32.074;2023-02-04T10:44:05;6.78;;;5.93;;
52035;SDS011;38046;49.448;32.074;2023-02-04T10:46:33;6.50;;;5.38;;
52035;SDS011;38046;49.448;32.074;2023-02-04T10:48:58;6.40;;;5.18;;
52035;SDS011;38046;49.448;32.074;2023-02-04T10:51:24;5.47;;;4.72;;
52035;SDS011;38046;49.448;32.074;2023-02-04T10:53:50;5.90;;;5.20;;
52035;SDS011;38046;49.448;32.074;2023-02-04T10:56:34;6.03;;;4.75;;
52035;SDS011;38046;49.448;32.074;2023-02-04T10:59:00;6.05;;;5.35;;
52035;SDS011;38046;49.448;32.074;2023-02-04T11:01:26;6.18;;;4.65;;
52035;SDS011;38046;49.448;32.074;2023-02-04T11:03:53;6.03;;;4.65;;
52035;SDS011;38046;49.448;32.074;2023-02-04T11:06:20;4.80;;;4.30;;
52035;SDS011;38046;49.448;32.074;2023-02-04T11:08:47;5.68;;;4.75;;
52035;SDS011;38046;49.448;32.074;2023-02-04T11:11:16;5.65;;;4.85;;
52035;SDS011;38046;49.448;32.074;2023-02-04T11:18:56;5.38;;;4.70;;
52035;SDS011;38046;49.448;32.074;2023-02-04T11:26:46;6.78;;;4.85;;
52035;SDS011;38046;49.448;32.074;2023-02-04T11:37:02;5.57;;;4.82;;
52035;SDS011;38046;49.448;32.074;2023-02-04T11:42:48;5.30;;;4.57;;
52035;SDS011;38046;49.448;32.074;2023-02-04T11:45:15;6.82;;;5.20;;
52035;SDS011;38046;49.448;32.074;2023-02-04T11:47:55;6.28;;;5.40;;
52035;SDS011;38046;49.448;32.074;2023-02-04T11:50:27;5.95;;;5.30;;
52035;SDS011;38046;49.448;32.074;2023-02-04T11:52:55;6.30;;;4.88;;
52035;SDS011;38046;49.448;32.074;2023-02-04T11:55:23;7.00;;;5.47;;
52035;SDS011;38046;49.448;32.074;2023-02-04T11:57:50;7.35;;;5.50;;
52035;SDS011;38046;49.448;32.074;2023-02-04T12:00:22;6.85;;;5.55;;
52035;SDS011;38046;49.448;32.074;2023-02-04T12:02:56;7.68;;;5.63;;
52035;SDS011;38046;49.448;32.074;2023-02-04T12:05:42;7.00;;;5.70;;
52035;SDS011;38046;49.448;32.074;2023-02-04T12:08:10;7.28;;;5.80;;
52035;SDS011;38046;49.448;32.074;2023-02-04T12:10:49;7.07;;;5.60;;
52035;SDS011;38046;49.448;32.074;2023-02-04T12:13:25;7.07;;;5.60;;
52035;SDS011;38046;49.448;32.074;2023-02-04T12:16:02;6.70;;;5.60;;
52035;SDS011;38046;49.448;32.074;2023-02-04T12:18:30;7.07;;;5.28;;
52035;SDS011;38046;49.448;32.074;2023-02-04T12:20:57;7.65;;;6.25;;
52035;SDS011;38046;49.448;32.074;2023-02-04T12:23:24;7.30;;;5.63;;
52035;SDS011;38046;49.448;32.074;2023-02-04T12:25:51;6.97;;;5.63;;
52035;SDS011;38046;49.448;32.074;2023-02-04T12:28:17;6.32;;;5.57;;
52035;SDS011;38046;49.448;32.074;2023-02-04T12:30:43;6.93;;;5.72;;
52035;SDS011;38046;49.448;32.074;2023-02-04T12:33:09;6.70;;;5.22;;
52035;SDS011;38046;49.448;32.074;2023-02-04T12:35:35;7.47;;;5.75;;
52035;SDS011;38046;49.448;32.074;2023-02-04T12:38:01;7.18;;;6.15;;
52035;SDS011;38046;49.448;32.074;2023-02-04T12:40:26;7.25;;;5.40;;
52035;SDS011;38046;49.448;32.074;2023-02-04T12:42:52;6.93;;;5.72;;
52035;SDS011;38046;49.448;32.074;2023-02-04T12:45:18;7.97;;;6.18;;
52035;SDS011;38046;49.448;32.074;2023-02-04T12:47:44;6.95;;;5.25;;
52035;SDS011;38046;49.448;32.074;2023-02-04T12:50:10;6.30;;;5.28;;
52035;SDS011;38046;49.448;32.074;2023-02-04T12:52:37;7.55;;;6.03;;
52035;SDS011;38046;49.448;32.074;2023-02-04T12:55:04;6.43;;;5.18;;
52035;SDS011;38046;49.448;32.074;2023-02-04T12:57:32;6.97;;;4.95;;
52035;SDS011;38046;49.448;32.074;2023-02-04T12:59:58;5.20;;;4.60;;
52035;SDS011;38046;49.448;32.074;2023-02-04T13:02:26;6.72;;;4.85;;
52035;SDS011;38046;49.448;32.074;2023-02-04T13:04:52;5.18;;;4.50;;
52035;SDS011;38046;49.448;32.074;2023-02-04T13:07:18;5.55;;;4.47;;
52035;SDS011;38046;49.448;32.074;2023-02-04T13:09:45;5.57;;;4.75;;
52035;SDS011;38046;49.448;32.074;2023-02-04T13:12:12;5.22;;;4.25;;
52035;SDS011;38046;49.448;32.074;2023-02-04T13:14:39;5.80;;;4.70;;
52035;SDS011;38046;49.448;32.074;2023-02-04T13:17:05;6.05;;;5.45;;
52035;SDS011;38046;49.448;32.074;2023-02-04T13:19:31;6.18;;;5.20;;
52035;SDS011;38046;49.448;32.074;2023-02-04T13:21:57;5.57;;;4.97;;
52035;SDS011;38046;49.448;32.074;2023-02-04T13:24:25;5.75;;;5.15;;
52035;SDS011;38046;49.448;32.074;2023-02-04T13:26:51;6.25;;;5.60;;
52035;SDS011;38046;49.448;32.074;2023-02-04T13:29:16;6.88;;;5.65;;
52035;SDS011;38046;49.448;32.074;2023-02-04T13:31:42;5.63;;;5.07;;
52035;SDS011;38046;49.448;32.074;2023-02-04T13:34:08;6.53;;;5.53;;
52035;SDS011;38046;49.448;32.074;2023-02-04T13:36:34;6.28;;;5.50;;
52035;SDS011;38046;49.448;32.074;2023-02-04T13:38:59;6.72;;;5.63;;
52035;SDS011;38046;49.448;32.074;2023-02-04T13:41:26;6.32;;;5.72;;
52035;SDS011;38046;49.448;32.074;2023-02-04T13:43:52;5.65;;;4.80;;
52035;SDS011;38046;49.448;32.074;2023-02-04T13:46:19;5.50;;;4.90;;
52035;SDS011;38046;49.448;32.074;2023-02-04T13:48:45;6.88;;;5.32;;
52035;SDS011;38046;49.448;32.074;2023-02-04T13:51:11;6.97;;;5.07;;
52035;SDS011;38046;49.448;32.074;2023-02-04T13:53:38;6.43;;;5.40;;
52035;SDS011;38046;49.448;32.074;2023-02-04T13:56:04;5.70;;;4.93;;
52035;SDS011;38046;49.448;32.074;2023-02-04T13:58:30;5.32;;;4.70;;
52035;SDS011;38046;49.448;32.074;2023-02-04T14:00:56;7.43;;;5.30;;
52035;SDS011;38046;49.448;32.074;2023-02-04T14:03:22;6.13;;;5.13;;
52035;SDS011;38046;49.448;32.074;2023-02-04T14:05:49;6.95;;;5.38;;
52035;SDS011;38046;49.448;32.074;2023-02-04T14:08:14;6.32;;;5.32;;
52035;SDS011;38046;49.448;32.074;2023-02-04T14:10:40;6.55;;;5.57;;
52035;SDS011;38046;49.448;32.074;2023-02-04T14:13:06;6.07;;;5.40;;
52035;SDS011;38046;49.448;32.074;2023-02-04T14:15:31;8.82;;;5.47;;
52035;SDS011;38046;49.448;32.074;2023-02-04T14:17:59;6.75;;;5.43;;
52035;SDS011;38046;49.448;32.074;2023-02-04T14:20:25;7.03;;;5.72;;
52035;SDS011;38046;49.448;32.074;2023-02-04T14:22:51;6.25;;;5.35;;
52035;SDS011;38046;49.448;32.074;2023-02-04T14:25:16;7.68;;;6.00;;
52035;SDS011;38046;49.448;32.074;2023-02-04T14:27:42;6.68;;;5.70;;
52035;SDS011;38046;49.448;32.074;2023-02-04T14:30:14;7.20;;;5.75;;
52035;SDS011;38046;49.448;32.074;2023-02-04T14:32:42;6.75;;;5.32;;
52035;SDS011;38046;49.448;32.074;2023-02-04T14:35:08;7.35;;;5.95;;
52035;SDS011;38046;49.448;32.074;2023-02-04T14:37:34;6.10;;;5.50;;
52035;SDS011;38046;49.448;32.074;2023-02-04T14:40:00;6.63;;;5.80;;
52035;SDS011;38046;49.448;32.074;2023-02-04T14:42:25;6.53;;;5.78;;
52035;SDS011;38046;49.448;32.074;2023-02-04T14:44:51;6.20;;;5.50;;
52035;SDS011;38046;49.448;32.074;2023-02-04T14:47:17;6.00;;;4.97;;
52035;SDS011;38046;49.448;32.074;2023-02-04T14:49:42;6.40;;;5.70;;
52035;SDS011;38046;49.448;32.074;2023-02-04T14:52:08;6.65;;;5.50;;
52035;SDS011;38046;49.448;32.074;2023-02-04T14:54:35;6.72;;;6.00;;
52035;SDS011;38046;49.448;32.074;2023-02-04T14:57:01;7.47;;;5.82;;
52035;SDS011;38046;49.448;32.074;2023-02-04T14:59:27;7.47;;;6.05;;
52035;SDS011;38046;49.448;32.074;2023-02-04T15:01:53;7.32;;;5.85;;